sensor_id;sensor_type;location;lat;lon;timestamp;pressure;altitude;pressure_sealevel;temperature;humidity
56241;BME280;42155;53.096;23.226;2023-06-24T00:01:22;99953.81;;;18.83;70.53
56241;BME280;42155;53.096;23.226;2023-06-24T00:03:22;99959.69;;;18.87;70.83
56241;BME280;42155;53.096;23.226;2023-06-24T00:05:22;99967.91;;;18.86;70.73
56241;BME280;42155;53.096;23.226;2023-06-24T00:07:23;99961.88;;;18.83;70.12
56241;BME280;42155;53.096;23.226;2023-06-24T00:09:23;99947.13;;;18.79;69.42
56241;BME280;42155;53.096;23.226;2023-06-24T00:11:23;99952.31;;;18.81;69.25
56241;BME280;42155;53.096;23.226;2023-06-24T00:13:23;99955.16;;;18.88;69.07
56241;BME280;42155;53.096;23.226;2023-06-24T00:15:24;99914.75;;;18.65;68.51
56241;BME280;42155;53.096;23.226;2023-06-24T00:17:24;99921.59;;;18.67;68.50
56241;BME280;42155;53.096;23.226;2023-06-24T00:19:26;99945.44;;;18.78;68.41
56241;BME280;42155;53.096;23.226;2023-06-24T00:21:27;99948.13;;;18.78;68.16
56241;BME280;42155;53.096;23.226;2023-06-24T00:23:28;99940.06;;;18.78;68.26
56241;BME280;42155;53.096;23.226;2023-06-24T00:25:29;99936.19;;;18.81;68.29
56241;BME280;42155;53.096;23.226;2023-06-24T00:27:30;99946.28;;;18.79;68.71
56241;BME280;42155;53.096;23.226;2023-06-24T00:29:30;99937.69;;;18.83;69.06
56241;BME280;42155;53.096;23.226;2023-06-24T00:31:30;99939.00;;;18.88;69.31
56241;BME280;42155;53.096;23.226;2023-06-24T00:33:31;99939.00;;;18.88;69.64
56241;BME280;42155;53.096;23.226;2023-06-24T00:35:31;99947.38;;;18.93;69.83
56241;BME280;42155;53.096;23.226;2023-06-24T00:37:31;99951.75;;;18.94;69.39
56241;BME280;42155;53.096;23.226;2023-06-24T00:39:32;99956.09;;;18.95;70.02
56241;BME280;42155;53.096;23.226;2023-06-24T00:41:33;99956.09;;;18.95;69.71
56241;BME280;42155;53.096;23.226;2023-06-24T00:43:34;99958.44;;;18.98;70.11
56241;BME280;42155;53.096;23.226;2023-06-24T00:45:35;99951.09;;;18.92;70.29
56241;BME280;42155;53.096;23.226;2023-06-24T00:47:35;99963.81;;;18.98;70.84
56241;BME280;42155;53.096;23.226;2023-06-24T00:49:35;99960.28;;;18.97;70.87
56241;BME280;42155;53.096;23.226;2023-06-24T00:51:36;99950.09;;;18.85;70.41
56241;BME280;42155;53.096;23.226;2023-06-24T00:53:36;99959.84;;;18.86;69.74
56241;BME280;42155;53.096;23.226;2023-06-24T00:55:37;99958.22;;;18.76;69.90
56241;BME280;42155;53.096;23.226;2023-06-24T00:57:37;99956.31;;;18.85;70.44
56241;BME280;42155;53.096;23.226;2023-06-24T00:59:38;99965.56;;;18.91;70.08
56241;BME280;42155;53.096;23.226;2023-06-24T01:01:41;99951.25;;;18.90;70.74
56241;BME280;42155;53.096;23.226;2023-06-24T01:03:41;99967.88;;;18.94;70.94
56241;BME280;42155;53.096;23.226;2023-06-24T01:05:43;99927.84;;;18.68;69.79
56241;BME280;42155;53.096;23.226;2023-06-24T01:07:45;99872.75;;;18.32;70.15
56241;BME280;42155;53.096;23.226;2023-06-24T01:09:47;99964.53;;;18.92;70.33
56241;BME280;42155;53.096;23.226;2023-06-24T01:11:47;99975.59;;;18.97;70.17
56241;BME280;42155;53.096;23.226;2023-06-24T01:13:47;99978.94;;;18.99;70.15
56241;BME280;42155;53.096;23.226;2023-06-24T01:15:48;99967.34;;;18.98;70.38
56241;BME280;42155;53.096;23.226;2023-06-24T01:17:56;99937.19;;;18.80;70.51
56241;BME280;42155;53.096;23.226;2023-06-24T01:20:11;99971.88;;;18.98;69.89
56241;BME280;42155;53.096;23.226;2023-06-24T01:22:36;99980.66;;;18.92;70.17
56241;BME280;42155;53.096;23.226;2023-06-24T01:27:29;99962.91;;;18.82;70.34
56241;BME280;42155;53.096;23.226;2023-06-24T01:32:12;99986.34;;;18.97;70.64
56241;BME280;42155;53.096;23.226;2023-06-24T01:34:36;99936.06;;;18.66;70.26
56241;BME280;42155;53.096;23.226;2023-06-24T01:36:39;99962.09;;;18.74;70.17
56241;BME280;42155;53.096;23.226;2023-06-24T01:38:47;99985.38;;;18.90;70.46
56241;BME280;42155;53.096;23.226;2023-06-24T01:40:48;99987.91;;;18.91;70.22
56241;BME280;42155;53.096;23.226;2023-06-24T01:42:50;99980.72;;;18.83;70.94
56241;BME280;42155;53.096;23.226;2023-06-24T01:44:51;99995.28;;;18.89;70.73
56241;BME280;42155;53.096;23.226;2023-06-24T01:46:55;99993.13;;;18.85;70.88
56241;BME280;42155;53.096;23.226;2023-06-24T01:49:01;99996.53;;;18.78;70.72
56241;BME280;42155;53.096;23.226;2023-06-24T01:51:09;99998.38;;;18.78;70.81
56241;BME280;42155;53.096;23.226;2023-06-24T01:53:11;99999.22;;;18.78;71.09
56241;BME280;42155;53.096;23.226;2023-06-24T01:55:18;99998.38;;;18.78;71.11
56241;BME280;42155;53.096;23.226;2023-06-24T01:57:20;99990.16;;;18.71;71.45
56241;BME280;42155;53.096;23.226;2023-06-24T01:59:21;99996.22;;;18.73;72.12
56241;BME280;42155;53.096;23.226;2023-06-24T02:01:23;99997.25;;;18.72;71.84
56241;BME280;42155;53.096;23.226;2023-06-24T02:03:25;99998.22;;;18.71;72.00
56241;BME280;42155;53.096;23.226;2023-06-24T02:05:28;99990.19;;;18.63;72.25
56241;BME280;42155;53.096;23.226;2023-06-24T02:07:29;100003.63;;;18.71;72.42
56241;BME280;42155;53.096;23.226;2023-06-24T02:09:31;99978.47;;;18.56;72.43
56241;BME280;42155;53.096;23.226;2023-06-24T02:11:33;99992.03;;;18.71;72.26
56241;BME280;42155;53.096;23.226;2023-06-24T02:13:35;100002.25;;;18.75;72.15
56241;BME280;42155;53.096;23.226;2023-06-24T02:15:38;100001.22;;;18.76;72.50
56241;BME280;42155;53.096;23.226;2023-06-24T02:17:39;100006.28;;;18.79;72.75
56241;BME280;42155;53.096;23.226;2023-06-24T02:19:41;100010.81;;;18.79;72.46
56241;BME280;42155;53.096;23.226;2023-06-24T02:21:42;100011.13;;;18.84;72.62
56241;BME280;42155;53.096;23.226;2023-06-24T02:23:42;100019.72;;;18.79;72.23
56241;BME280;42155;53.096;23.226;2023-06-24T02:25:43;100020.41;;;18.81;72.69
56241;BME280;42155;53.096;23.226;2023-06-24T02:27:44;100009.31;;;18.76;72.62
56241;BME280;42155;53.096;23.226;2023-06-24T02:29:44;99991.88;;;18.64;72.40
56241;BME280;42155;53.096;23.226;2023-06-24T02:31:45;100024.75;;;18.82;72.55
56241;BME280;42155;53.096;23.226;2023-06-24T02:33:46;100025.78;;;18.81;72.37
56241;BME280;42155;53.096;23.226;2023-06-24T02:35:46;100013.69;;;18.77;72.66
56241;BME280;42155;53.096;23.226;2023-06-24T02:37:46;100001.94;;;18.70;72.64
56241;BME280;42155;53.096;23.226;2023-06-24T02:39:47;100022.91;;;18.83;72.69
56241;BME280;42155;53.096;23.226;2023-06-24T02:41:47;100016.69;;;18.82;72.55
56241;BME280;42155;53.096;23.226;2023-06-24T02:43:47;100027.41;;;18.91;72.52
56241;BME280;42155;53.096;23.226;2023-06-24T02:45:48;100035.94;;;18.94;72.50
56241;BME280;42155;53.096;23.226;2023-06-24T02:47:49;100036.75;;;19.03;72.75
56241;BME280;42155;53.096;23.226;2023-06-24T02:49:51;100013.59;;;18.94;72.25
56241;BME280;42155;53.096;23.226;2023-06-24T02:51:52;100031.34;;;19.03;72.24
56241;BME280;42155;53.096;23.226;2023-06-24T02:53:52;99991.19;;;18.70;72.33
56241;BME280;42155;53.096;23.226;2023-06-24T02:55:55;100039.44;;;19.03;71.89
56241;BME280;42155;53.096;23.226;2023-06-24T02:57:56;100038.59;;;19.02;72.37
56241;BME280;42155;53.096;23.226;2023-06-24T02:59:57;100024.84;;;18.97;71.99
56241;BME280;42155;53.096;23.226;2023-06-24T03:01:57;100042.13;;;19.03;72.12
56241;BME280;42155;53.096;23.226;2023-06-24T03:03:58;100037.75;;;19.02;71.90
56241;BME280;42155;53.096;23.226;2023-06-24T03:05:59;100036.44;;;18.98;72.30
56241;BME280;42155;53.096;23.226;2023-06-24T03:08:00;100036.09;;;19.01;72.29
56241;BME280;42155;53.096;23.226;2023-06-24T03:10:02;100031.41;;;18.95;72.09
56241;BME280;42155;53.096;23.226;2023-06-24T03:12:03;100026.06;;;18.87;72.16
56241;BME280;42155;53.096;23.226;2023-06-24T03:14:03;100035.09;;;18.94;72.12
56241;BME280;42155;53.096;23.226;2023-06-24T03:16:04;100034.09;;;18.95;72.45
56241;BME280;42155;53.096;23.226;2023-06-24T03:18:04;100032.59;;;18.92;72.55
56241;BME280;42155;53.096;23.226;2023-06-24T03:20:05;100012.97;;;18.83;72.60
56241;BME280;42155;53.096;23.226;2023-06-24T03:22:06;100032.91;;;18.97;72.50
56241;BME280;42155;53.096;23.226;2023-06-24T03:24:06;100038.78;;;19.01;72.39
56241;BME280;42155;53.096;23.226;2023-06-24T03:26:06;100032.72;;;18.99;72.23
56241;BME280;42155;53.096;23.226;2023-06-24T03:28:07;100030.72;;;19.01;72.34
56241;BME280;42155;53.096;23.226;2023-06-24T03:30:07;100027.22;;;18.92;72.07
56241;BME280;42155;53.096;23.226;2023-06-24T03:32:08;100042.00;;;18.96;72.17
56241;BME280;42155;53.096;23.226;2023-06-24T03:34:08;100039.66;;;18.93;72.40
56241;BME280;42155;53.096;23.226;2023-06-24T03:36:09;100023.09;;;18.81;72.56
56241;BME280;42155;53.096;23.226;2023-06-24T03:38:09;100019.53;;;18.81;72.60
56241;BME280;42155;53.096;23.226;2023-06-24T03:40:10;100036.31;;;18.91;72.43
56241;BME280;42155;53.096;23.226;2023-06-24T03:42:10;100046.75;;;18.86;72.65
56241;BME280;42155;53.096;23.226;2023-06-24T03:44:10;100042.88;;;18.80;72.94
56241;BME280;42155;53.096;23.226;2023-06-24T03:46:11;100048.94;;;18.82;72.69
56241;BME280;42155;53.096;23.226;2023-06-24T03:48:11;99976.16;;;18.45;72.86
56241;BME280;42155;53.096;23.226;2023-06-24T03:50:12;100048.91;;;18.91;72.52
56241;BME280;42155;53.096;23.226;2023-06-24T03:52:12;100047.41;;;18.88;72.67
56241;BME280;42155;53.096;23.226;2023-06-24T03:54:12;100049.25;;;18.88;72.69
56241;BME280;42155;53.096;23.226;2023-06-24T03:56:13;100040.88;;;18.82;72.35
56241;BME280;42155;53.096;23.226;2023-06-24T03:58:13;100048.75;;;18.92;72.48
56241;BME280;42155;53.096;23.226;2023-06-24T04:00:14;100048.41;;;18.95;72.44
56241;BME280;42155;53.096;23.226;2023-06-24T04:02:14;100060.44;;;18.99;72.09
56241;BME280;42155;53.096;23.226;2023-06-24T04:04:14;100046.84;;;19.01;72.04
56241;BME280;42155;53.096;23.226;2023-06-24T04:06:15;100055.22;;;19.06;72.15
56241;BME280;42155;53.096;23.226;2023-06-24T04:08:15;100053.50;;;19.13;71.79
56241;BME280;42155;53.096;23.226;2023-06-24T04:10:15;100051.78;;;19.20;71.93
56241;BME280;42155;53.096;23.226;2023-06-24T04:12:16;100031.97;;;19.13;71.01
56241;BME280;42155;53.096;23.226;2023-06-24T04:14:16;100054.44;;;19.28;71.51
56241;BME280;42155;53.096;23.226;2023-06-24T04:16:16;100055.88;;;19.39;71.15
56241;BME280;42155;53.096;23.226;2023-06-24T04:18:17;100052.75;;;19.50;71.02
56241;BME280;42155;53.096;23.226;2023-06-24T04:20:18;100059.25;;;19.64;70.49
56241;BME280;42155;53.096;23.226;2023-06-24T04:22:18;100060.03;;;19.73;69.81
56241;BME280;42155;53.096;23.226;2023-06-24T04:24:18;100059.13;;;19.80;69.34
56241;BME280;42155;53.096;23.226;2023-06-24T04:26:19;100061.78;;;19.89;69.25
56241;BME280;42155;53.096;23.226;2023-06-24T04:28:19;100060.94;;;19.88;69.49
56241;BME280;42155;53.096;23.226;2023-06-24T04:30:19;100063.25;;;19.91;69.68
56241;BME280;42155;53.096;23.226;2023-06-24T04:32:20;100060.69;;;19.98;69.19
56241;BME280;42155;53.096;23.226;2023-06-24T04:34:20;100075.38;;;20.10;68.23
56241;BME280;42155;53.096;23.226;2023-06-24T04:36:20;100083.75;;;20.15;68.09
56241;BME280;42155;53.096;23.226;2023-06-24T04:38:21;100084.22;;;20.19;67.88
56241;BME280;42155;53.096;23.226;2023-06-24T04:40:21;100078.94;;;20.25;68.07
56241;BME280;42155;53.096;23.226;2023-06-24T04:42:22;100078.22;;;20.31;67.46
56241;BME280;42155;53.096;23.226;2023-06-24T04:44:22;100075.22;;;20.26;67.82
56241;BME280;42155;53.096;23.226;2023-06-24T04:46:22;100074.88;;;20.29;67.58
56241;BME280;42155;53.096;23.226;2023-06-24T04:48:23;100079.81;;;20.41;67.25
56241;BME280;42155;53.096;23.226;2023-06-24T04:50:24;100073.78;;;20.39;67.04
56241;BME280;42155;53.096;23.226;2023-06-24T04:52:24;100045.31;;;20.21;66.81
56241;BME280;42155;53.096;23.226;2023-06-24T04:54:24;100068.63;;;20.29;67.33
56241;BME280;42155;53.096;23.226;2023-06-24T04:56:25;100053.19;;;20.23;67.20
56241;BME280;42155;53.096;23.226;2023-06-24T04:58:25;100064.53;;;20.33;66.77
56241;BME280;42155;53.096;23.226;2023-06-24T05:00:25;100078.25;;;20.61;66.33
56241;BME280;42155;53.096;23.226;2023-06-24T05:02:26;100081.59;;;20.93;66.48
56241;BME280;42155;53.096;23.226;2023-06-24T05:04:26;100077.84;;;21.23;65.07
56241;BME280;42155;53.096;23.226;2023-06-24T05:06:26;100086.84;;;21.45;64.55
56241;BME280;42155;53.096;23.226;2023-06-24T05:08:27;100081.66;;;21.65;64.15
56241;BME280;42155;53.096;23.226;2023-06-24T05:10:27;100070.78;;;21.80;63.45
56241;BME280;42155;53.096;23.226;2023-06-24T05:12:27;100074.44;;;21.94;62.67
56241;BME280;42155;53.096;23.226;2023-06-24T05:14:28;100077.59;;;22.19;62.44
56241;BME280;42155;53.096;23.226;2023-06-24T05:16:28;100062.94;;;22.34;62.06
56241;BME280;42155;53.096;23.226;2023-06-24T05:18:28;100069.81;;;22.72;61.24
56241;BME280;42155;53.096;23.226;2023-06-24T05:20:29;100082.59;;;23.32;59.99
56241;BME280;42155;53.096;23.226;2023-06-24T05:22:29;100085.25;;;23.87;58.61
56241;BME280;42155;53.096;23.226;2023-06-24T05:24:29;100080.06;;;24.32;56.53
56241;BME280;42155;53.096;23.226;2023-06-24T05:26:30;100077.56;;;24.44;56.27
56241;BME280;42155;53.096;23.226;2023-06-24T05:28:30;100071.69;;;24.60;55.23
56241;BME280;42155;53.096;23.226;2023-06-24T05:30:30;100078.75;;;24.74;55.43
56241;BME280;42155;53.096;23.226;2023-06-24T05:32:30;100084.53;;;24.91;55.02
56241;BME280;42155;53.096;23.226;2023-06-24T05:34:31;100053.25;;;24.82;54.79
56241;BME280;42155;53.096;23.226;2023-06-24T05:36:31;100085.63;;;24.83;54.81
56241;BME280;42155;53.096;23.226;2023-06-24T05:38:32;100088.38;;;24.70;55.04
56241;BME280;42155;53.096;23.226;2023-06-24T05:40:32;100091.09;;;24.70;54.29
56241;BME280;42155;53.096;23.226;2023-06-24T05:42:33;100089.03;;;24.59;54.47
56241;BME280;42155;53.096;23.226;2023-06-24T05:44:33;100085.09;;;24.42;55.56
56241;BME280;42155;53.096;23.226;2023-06-24T05:46:34;100090.69;;;24.33;54.23
56241;BME280;42155;53.096;23.226;2023-06-24T05:48:34;100089.03;;;24.32;54.45
56241;BME280;42155;53.096;23.226;2023-06-24T05:50:34;100076.72;;;24.50;53.88
56241;BME280;42155;53.096;23.226;2023-06-24T05:52:35;100081.81;;;24.98;53.40
56241;BME280;42155;53.096;23.226;2023-06-24T05:54:35;100082.69;;;25.43;52.55
56241;BME280;42155;53.096;23.226;2023-06-24T05:56:35;100073.53;;;25.76;51.05
56241;BME280;42155;53.096;23.226;2023-06-24T05:58:36;100068.88;;;26.08;51.10
56241;BME280;42155;53.096;23.226;2023-06-24T06:00:36;100063.66;;;26.31;49.87
56241;BME280;42155;53.096;23.226;2023-06-24T06:02:37;100075.88;;;26.47;49.79
56241;BME280;42155;53.096;23.226;2023-06-24T06:04:38;100076.44;;;26.92;49.36
56241;BME280;42155;53.096;23.226;2023-06-24T06:06:39;100074.28;;;27.31;48.99
56241;BME280;42155;53.096;23.226;2023-06-24T06:08:39;100073.31;;;27.56;47.93
56241;BME280;42155;53.096;23.226;2023-06-24T06:10:39;100060.63;;;27.80;47.42
56241;BME280;42155;53.096;23.226;2023-06-24T06:12:40;100070.69;;;27.91;46.58
56241;BME280;42155;53.096;23.226;2023-06-24T06:14:41;100050.94;;;27.35;47.03
56241;BME280;42155;53.096;23.226;2023-06-24T06:16:41;100072.41;;;27.32;46.82
56241;BME280;42155;53.096;23.226;2023-06-24T06:18:41;100078.34;;;27.10;47.94
56241;BME280;42155;53.096;23.226;2023-06-24T06:20:42;100080.00;;;27.11;47.56
56241;BME280;42155;53.096;23.226;2023-06-24T06:22:42;100083.53;;;27.30;46.84
56241;BME280;42155;53.096;23.226;2023-06-24T06:24:42;100091.38;;;27.38;47.47
56241;BME280;42155;53.096;23.226;2023-06-24T06:26:43;100053.50;;;27.49;47.30
56241;BME280;42155;53.096;23.226;2023-06-24T06:28:44;100078.06;;;27.90;46.81
56241;BME280;42155;53.096;23.226;2023-06-24T06:30:44;100079.63;;;27.98;46.18
56241;BME280;42155;53.096;23.226;2023-06-24T06:32:45;100072.47;;;27.85;46.39
56241;BME280;42155;53.096;23.226;2023-06-24T06:34:45;100073.28;;;27.74;45.99
56241;BME280;42155;53.096;23.226;2023-06-24T06:36:45;100067.38;;;27.47;46.31
56241;BME280;42155;53.096;23.226;2023-06-24T06:38:46;100074.94;;;27.45;46.15
56241;BME280;42155;53.096;23.226;2023-06-24T06:40:47;100076.97;;;27.50;45.42
56241;BME280;42155;53.096;23.226;2023-06-24T06:42:51;100091.38;;;27.38;46.74
56241;BME280;42155;53.096;23.226;2023-06-24T06:44:51;100079.09;;;27.48;46.45
56241;BME280;42155;53.096;23.226;2023-06-24T06:46:54;100074.84;;;27.52;46.01
56241;BME280;42155;53.096;23.226;2023-06-24T06:48:54;100072.25;;;27.57;45.74
56241;BME280;42155;53.096;23.226;2023-06-24T06:50:55;100066.53;;;27.77;46.01
56241;BME280;42155;53.096;23.226;2023-06-24T06:52:55;100033.44;;;27.73;46.12
56241;BME280;42155;53.096;23.226;2023-06-24T06:54:56;100070.16;;;28.12;45.19
56241;BME280;42155;53.096;23.226;2023-06-24T06:57:00;100068.38;;;28.18;44.97
56241;BME280;42155;53.096;23.226;2023-06-24T06:59:02;100069.09;;;28.13;45.04
56241;BME280;42155;53.096;23.226;2023-06-24T07:01:02;100047.34;;;27.83;45.29
56241;BME280;42155;53.096;23.226;2023-06-24T07:03:03;100068.22;;;27.89;44.80
56241;BME280;42155;53.096;23.226;2023-06-24T07:05:03;100070.81;;;27.96;44.49
56241;BME280;42155;53.096;23.226;2023-06-24T07:07:04;100073.44;;;27.79;44.42
56241;BME280;42155;53.096;23.226;2023-06-24T07:09:05;100070.72;;;27.61;45.05
56241;BME280;42155;53.096;23.226;2023-06-24T07:11:05;100074.19;;;27.68;45.10
56241;BME280;42155;53.096;23.226;2023-06-24T07:13:05;100070.41;;;27.69;44.51
56241;BME280;42155;53.096;23.226;2023-06-24T07:15:06;100081.63;;;27.61;45.92
56241;BME280;42155;53.096;23.226;2023-06-24T07:17:07;100051.88;;;27.29;45.44
56241;BME280;42155;53.096;23.226;2023-06-24T07:19:07;100049.03;;;27.24;45.42
56241;BME280;42155;53.096;23.226;2023-06-24T07:21:08;100077.25;;;27.60;44.90
56241;BME280;42155;53.096;23.226;2023-06-24T07:23:08;100084.50;;;27.66;44.58
56241;BME280;42155;53.096;23.226;2023-06-24T07:25:09;100075.41;;;27.72;45.22
56241;BME280;42155;53.096;23.226;2023-06-24T07:27:09;100084.72;;;27.95;45.30
56241;BME280;42155;53.096;23.226;2023-06-24T07:29:10;100083.75;;;28.01;44.06
56241;BME280;42155;53.096;23.226;2023-06-24T07:31:10;100081.84;;;27.89;44.00
56241;BME280;42155;53.096;23.226;2023-06-24T07:33:11;100080.66;;;27.74;44.43
56241;BME280;42155;53.096;23.226;2023-06-24T07:35:13;100040.19;;;27.40;43.44
56241;BME280;42155;53.096;23.226;2023-06-24T07:37:13;100081.25;;;27.57;43.19
56241;BME280;42155;53.096;23.226;2023-06-24T07:39:13;100076.25;;;27.54;43.08
56241;BME280;42155;53.096;23.226;2023-06-24T07:41:14;100077.44;;;27.47;43.55
56241;BME280;42155;53.096;23.226;2023-06-24T07:43:14;100081.81;;;27.48;42.98
56241;BME280;42155;53.096;23.226;2023-06-24T07:45:14;100081.13;;;27.52;42.54
56241;BME280;42155;53.096;23.226;2023-06-24T07:47:16;100088.06;;;27.36;43.43
56241;BME280;42155;53.096;23.226;2023-06-24T07:49:18;100049.28;;;27.23;44.16
56241;BME280;42155;53.096;23.226;2023-06-24T07:51:18;100086.22;;;27.49;43.20
56241;BME280;42155;53.096;23.226;2023-06-24T07:53:18;100079.56;;;27.45;41.76
56241;BME280;42155;53.096;23.226;2023-06-24T07:55:19;100098.81;;;27.13;42.56
56241;BME280;42155;53.096;23.226;2023-06-24T07:57:19;100098.38;;;27.16;42.74
56241;BME280;42155;53.096;23.226;2023-06-24T07:59:19;100093.06;;;27.21;43.00
56241;BME280;42155;53.096;23.226;2023-06-24T08:01:20;100093.69;;;27.23;43.32
56241;BME280;42155;53.096;23.226;2023-06-24T08:03:20;100098.81;;;27.31;42.66
56241;BME280;42155;53.096;23.226;2023-06-24T08:05:21;100094.69;;;27.40;42.32
56241;BME280;42155;53.096;23.226;2023-06-24T08:07:21;100077.94;;;27.25;42.33
56241;BME280;42155;53.096;23.226;2023-06-24T08:09:21;100093.59;;;27.30;43.58
56241;BME280;42155;53.096;23.226;2023-06-24T08:11:22;100058.25;;;27.05;42.90
56241;BME280;42155;53.096;23.226;2023-06-24T08:13:22;100087.88;;;27.20;43.83
56241;BME280;42155;53.096;23.226;2023-06-24T08:15:22;100092.13;;;27.46;43.87
56241;BME280;42155;53.096;23.226;2023-06-24T08:17:23;100095.13;;;27.74;43.70
56241;BME280;42155;53.096;23.226;2023-06-24T08:19:23;100058.97;;;27.79;42.75
56241;BME280;42155;53.096;23.226;2023-06-24T08:21:28;100082.25;;;28.16;42.76
56241;BME280;42155;53.096;23.226;2023-06-24T08:23:31;100094.50;;;28.37;43.51
56241;BME280;42155;53.096;23.226;2023-06-24T08:25:32;100087.41;;;28.36;41.68
56241;BME280;42155;53.096;23.226;2023-06-24T08:27:32;100097.09;;;28.21;41.39
56241;BME280;42155;53.096;23.226;2023-06-24T08:29:32;100091.00;;;27.95;42.18
56241;BME280;42155;53.096;23.226;2023-06-24T08:31:33;100091.31;;;27.75;41.67
56241;BME280;42155;53.096;23.226;2023-06-24T08:33:33;100093.66;;;27.72;42.45
56241;BME280;42155;53.096;23.226;2023-06-24T08:35:33;100079.09;;;27.78;42.07
56241;BME280;42155;53.096;23.226;2023-06-24T08:37:34;100089.72;;;27.98;41.20
56241;BME280;42155;53.096;23.226;2023-06-24T08:39:34;100099.03;;;27.78;40.37
56241;BME280;42155;53.096;23.226;2023-06-24T08:41:34;100100.59;;;27.56;39.97
56241;BME280;42155;53.096;23.226;2023-06-24T08:43:35;100100.91;;;27.48;40.65
56241;BME280;42155;53.096;23.226;2023-06-24T08:45:35;100104.09;;;27.45;40.81
56241;BME280;42155;53.096;23.226;2023-06-24T08:47:36;100106.38;;;27.29;39.72
56241;BME280;42155;53.096;23.226;2023-06-24T08:49:48;100096.41;;;27.23;39.82
56241;BME280;42155;53.096;23.226;2023-06-24T08:54:00;100111.91;;;27.41;38.99
56241;BME280;42155;53.096;23.226;2023-06-24T08:56:02;100119.41;;;27.46;38.52
56241;BME280;42155;53.096;23.226;2023-06-24T08:58:02;100119.22;;;27.40;38.53
56241;BME280;42155;53.096;23.226;2023-06-24T09:00:03;100119.44;;;27.27;38.82
56241;BME280;42155;53.096;23.226;2023-06-24T09:02:04;100124.13;;;27.20;38.40
56241;BME280;42155;53.096;23.226;2023-06-24T09:04:04;100115.09;;;27.20;39.94
56241;BME280;42155;53.096;23.226;2023-06-24T09:06:04;100132.41;;;27.44;39.78
56241;BME280;42155;53.096;23.226;2023-06-24T09:08:05;100124.84;;;27.46;39.58
56241;BME280;42155;53.096;23.226;2023-06-24T09:10:05;100129.38;;;27.52;39.98
56241;BME280;42155;53.096;23.226;2023-06-24T09:12:12;100138.34;;;27.71;40.21
56241;BME280;42155;53.096;23.226;2023-06-24T09:14:13;100137.25;;;27.90;38.87
56241;BME280;42155;53.096;23.226;2023-06-24T09:16:14;100126.69;;;27.94;38.45
56241;BME280;42155;53.096;23.226;2023-06-24T09:18:14;100095.34;;;27.54;38.07
56241;BME280;42155;53.096;23.226;2023-06-24T09:20:15;100120.00;;;27.48;39.08
56241;BME280;42155;53.096;23.226;2023-06-24T09:22:16;100122.25;;;27.51;38.35
56241;BME280;42155;53.096;23.226;2023-06-24T09:24:18;100127.56;;;27.46;39.03
56241;BME280;42155;53.096;23.226;2023-06-24T09:26:18;100129.53;;;27.38;38.68
56241;BME280;42155;53.096;23.226;2023-06-24T09:28:19;100143.72;;;27.29;38.67
56241;BME280;42155;53.096;23.226;2023-06-24T09:30:22;100136.13;;;27.12;39.42
56241;BME280;42155;53.096;23.226;2023-06-24T09:32:28;100131.56;;;27.06;39.03
56241;BME280;42155;53.096;23.226;2023-06-24T09:34:29;100135.94;;;27.14;39.33
56241;BME280;42155;53.096;23.226;2023-06-24T09:36:31;100113.19;;;27.02;39.26
56241;BME280;42155;53.096;23.226;2023-06-24T09:38:35;100134.75;;;27.03;38.66
56241;BME280;42155;53.096;23.226;2023-06-24T09:40:35;100132.63;;;26.87;39.80
56241;BME280;42155;53.096;23.226;2023-06-24T09:42:36;100130.97;;;26.86;40.46
56241;BME280;42155;53.096;23.226;2023-06-24T09:44:36;100129.66;;;26.70;40.85
56241;BME280;42155;53.096;23.226;2023-06-24T09:46:37;100132.78;;;26.74;40.66
56241;BME280;42155;53.096;23.226;2023-06-24T09:48:37;100130.16;;;26.85;40.47
56241;BME280;42155;53.096;23.226;2023-06-24T09:50:38;100126.38;;;26.86;39.33
56241;BME280;42155;53.096;23.226;2023-06-24T09:52:38;100128.97;;;26.75;40.22
56241;BME280;42155;53.096;23.226;2023-06-24T09:54:39;100117.03;;;26.76;41.32
56241;BME280;42155;53.096;23.226;2023-06-24T09:56:43;100126.53;;;27.10;41.09
56241;BME280;42155;53.096;23.226;2023-06-24T09:58:46;100125.78;;;27.21;40.58
56241;BME280;42155;53.096;23.226;2023-06-24T10:00:46;100128.78;;;27.31;41.43
56241;BME280;42155;53.096;23.226;2023-06-24T10:02:48;100088.44;;;27.03;41.05
56241;BME280;42155;53.096;23.226;2023-06-24T10:04:49;100123.88;;;27.22;40.23
56241;BME280;42155;53.096;23.226;2023-06-24T10:06:53;100099.28;;;26.91;40.55
56241;BME280;42155;53.096;23.226;2023-06-24T10:08:53;100133.09;;;27.02;40.25
56241;BME280;42155;53.096;23.226;2023-06-24T10:10:54;100130.75;;;27.06;40.36
56241;BME280;42155;53.096;23.226;2023-06-24T10:12:56;100129.41;;;27.15;40.09
56241;BME280;42155;53.096;23.226;2023-06-24T10:14:58;100121.00;;;27.16;40.74
56241;BME280;42155;53.096;23.226;2023-06-24T10:17:03;100058.44;;;26.91;41.00
56241;BME280;42155;53.096;23.226;2023-06-24T10:19:05;100128.25;;;27.41;40.92
56241;BME280;42155;53.096;23.226;2023-06-24T10:21:07;100101.09;;;27.34;40.76
56241;BME280;42155;53.096;23.226;2023-06-24T10:23:08;100130.41;;;27.69;39.99
56241;BME280;42155;53.096;23.226;2023-06-24T10:25:27;100128.72;;;27.68;40.85
56241;BME280;42155;53.096;23.226;2023-06-24T10:27:50;100125.84;;;27.63;39.76
56241;BME280;42155;53.096;23.226;2023-06-24T10:29:54;100129.66;;;27.62;41.15
56241;BME280;42155;53.096;23.226;2023-06-24T10:31:57;100111.50;;;27.56;40.40
56241;BME280;42155;53.096;23.226;2023-06-24T10:37:25;100110.59;;;27.44;40.48
56241;BME280;42155;53.096;23.226;2023-06-24T10:45:22;100134.22;;;26.95;40.97